Heber City, UT

12:47 PM MDT on August 23, 2014 (GMT -0600)
US 40 & Coyote Lane | Change Station
CLOSE
Current Station
Personal Weather Station
Location: Heber City, UT
Elevation: 5763 ft
Nearby Weather Stations

Elev 5763 ft 40.52 °N, 111.41 °W | Updated 5 minutes ago

Scattered Clouds
Scattered Clouds
59.5 °F
Feels Like 59.5 °F
N
3.0
Wind Variable Wind from North
Gusts 6.0 mph

Today
High -- | Low -- °F
--% Chance of Precip.
Yesterday
High -- | Low -- °F
Precip. -- in
6:44 AM 8:11 PM
Waning Crescent, 3% visible
Pressure 30.10 in
Visibility 10.0 miles
Clouds Scattered Clouds 7500 ft
Scattered Clouds 9000 ft
Dew Point 45 °F
Humidity 58%
Rainfall -999.00 in
Snow Depth 0 in , 1 in , 0 in
UV 8 out of 12
Pollen 7.50 out of 12
Air Quality Not available.
Flu Activity Not available.
METAR K36U 231835Z AUTO 03003KT 10SM SCT075 SCT090 17/07 A3010 RMK AO2 LTG DSNT NE

More Conditions Fewer Conditions

Pressure 30.10 in
Visibility 10.0 miles
Clouds Scattered Clouds 7500 ft
Scattered Clouds 9000 ft
Dew Point 45 °F
Humidity 58%
Rainfall -999.00 in
Snow Depth 0 in , 1 in , 0 in
UV 8 out of 12
Pollen 7.50 out of 12
Air Quality Not available.
Flu Activity Not available.
METAR K36U 231835Z AUTO 03003KT 10SM SCT075 SCT090 17/07 A3010 RMK AO2 LTG DSNT NE

More Conditions Fewer Conditions

Nowcast | as of 11:54 am MDT on August 23, 2014

Scattered showers and isolated thunderstorms are popping up across northeast and southcentral Utah and southwest Wyoming. The strongest storms at 1150 am will affect portions of southern Rich County...Evanston Wyoming...Davis County near Hill Air Force Base and north Odgen in Weber County through 1 PM. Brief heavy rain...gusty winds and dangerous lightning may accompany some storms.

×

10-Day Weather Forecast

Almanac

Astronomy

Aug. 23, 2014 Rise Set
Actual Time 6:44 AM MDT 8:11 PM MDT
Civil Twilight 6:15 AM MDT 8:40 PM MDT
Nautical Twilight 5:41 AM MDT 9:14 PM MDT
Astronomical Twilight 5:04 AM MDT 9:50 PM MDT
Moon 5:03 AM MDT 6:58 PM MDT
Length of Visible Light 14h 24m
Length of Day
13h 27m
Tomorrow will be 2m 29s shorter.
Waning Crescent, 3% of the Moon is Illuminated
Today
Waning Crescent
Aug 25
New
Sep 2
First Quarter
Sep 8
Full
Sep 15
Last Quarter

Today's Extremes

State Highs State Lows

Community

WunderPhotos

Upload Photos

1,746,558 photos uploaded!

WunderBlogs® & News

By Dr. Jeff Masters
Director of Meteorology, Weather Underground
By Kari Strenfel
Meteorologist, Weather Underground
By Christopher C. Burt
Weather Historian, Weather Underground
August 23, 2014
August 23, 2014
August 23, 2014

Nearby

Snow Depth

Station Depth Elevation
Thaynes Canyon 0 in 9200 ft
Brighton 1 in 8750 ft
Mill-d North 0 in 8960 ft
Daniels-Strawberry 1 in 8000 ft
Strawberry Divide 0 in 8400 ft

Earthquake Activity

City Distance Mag. Time & Date
No recent earthquake activity has been reported nearby.
Minimum magnitude displayed is 2.5.

Coastal Water Temperatures

Place Temperature
No Stations Reporting

Nearby Weather Stations